createdAt,value
2019-01-10T00:00:52.867Z,363.00
2019-01-10T00:03:20.555Z,383.33
2019-01-10T00:05:48.163Z,357.00
2019-01-10T00:08:16.086Z,367.17
2019-01-10T00:10:43.797Z,361.13
2019-01-10T00:13:11.558Z,384.77
2019-01-10T00:15:39.002Z,365.07
2019-01-10T00:18:06.627Z,372.63
2019-01-10T00:20:34.161Z,372.50
2019-01-10T00:23:01.961Z,354.90
2019-01-10T00:25:29.448Z,375.13
2019-01-10T00:27:56.899Z,416.63
2019-01-10T00:30:24.431Z,364.47
2019-01-10T00:32:52.197Z,397.33
2019-01-10T00:35:19.788Z,405.27
2019-01-10T00:37:47.628Z,392.93
2019-01-10T00:40:15.531Z,363.60
2019-01-10T00:42:49.251Z,425.57
2019-01-10T00:45:14.571Z,380.33
2019-01-10T00:47:42.446Z,397.10
2019-01-10T00:50:28.088Z,364.33
2019-01-10T00:52:55.719Z,375.87
2019-01-10T00:55:23.362Z,384.50
2019-01-10T00:57:50.867Z,415.97
2019-01-10T01:00:21.568Z,388.87
2019-01-10T01:02:49.381Z,401.40
2019-01-10T01:05:17.196Z,389.90
2019-01-10T01:07:44.783Z,429.30
2019-01-10T01:10:22.429Z,391.23
2019-01-10T01:12:57.983Z,406.10
2019-01-10T01:15:20.015Z,385.43
2019-01-10T01:17:47.623Z,415.77
2019-01-10T01:20:17.753Z,378.90
2019-01-10T01:22:45.735Z,400.73
2019-01-10T01:25:14.209Z,360.63
2019-01-10T01:27:41.961Z,409.47
2019-01-10T01:30:15.961Z,369.23
2019-01-10T01:32:43.534Z,403.97
2019-01-10T01:35:11.477Z,356.07
2019-01-10T01:37:38.942Z,406.53
2019-01-10T01:40:08.178Z,367.53
2019-01-10T01:42:35.654Z,406.70
2019-01-10T01:45:04.148Z,376.87
2019-01-10T01:47:31.651Z,454.17
2019-01-10T01:49:59.590Z,377.17
2019-01-10T01:52:27.237Z,398.37
2019-01-10T01:54:54.727Z,357.50
2019-01-10T01:57:22.190Z,406.13
2019-01-10T01:59:49.561Z,358.43
2019-01-10T02:02:17.370Z,406.67
2019-01-10T02:04:44.717Z,376.20
2019-01-10T02:07:18.424Z,391.63
2019-01-10T02:09:46.111Z,377.70
2019-01-10T02:12:13.671Z,395.73
2019-01-10T02:14:41.233Z,388.57
2019-01-10T02:17:08.792Z,383.07
2019-01-10T02:19:36.261Z,364.10
2019-01-10T02:22:04.048Z,407.53
2019-01-10T02:24:31.547Z,376.60
2019-01-10T02:26:59.168Z,364.50
2019-01-10T02:29:27.062Z,381.57
2019-01-10T02:31:54.661Z,389.63
2019-01-10T02:34:22.155Z,456.40
2019-01-10T02:36:49.627Z,384.33
2019-01-10T02:39:20.179Z,402.17
2019-01-10T02:41:47.637Z,341.70
2019-01-10T02:44:15.284Z,369.40
2019-01-10T02:46:42.862Z,383.30
2019-01-10T02:49:10.540Z,374.03
2019-01-10T02:51:38.149Z,384.43
2019-01-10T02:54:05.609Z,385.93
2019-01-10T02:56:36.344Z,384.60
2019-01-10T02:59:04.266Z,357.07
2019-01-10T03:01:31.826Z,376.57
2019-01-10T03:03:59.326Z,391.87
2019-01-10T03:06:26.951Z,381.50
2019-01-10T03:08:57.432Z,374.87
2019-01-10T03:11:24.782Z,388.90
2019-01-10T03:13:52.262Z,379.93
2019-01-10T03:16:20.749Z,372.93
2019-01-10T03:18:48.283Z,382.70
2019-01-10T03:21:15.775Z,376.17
2019-01-10T03:23:43.153Z,383.37
2019-01-10T03:26:10.770Z,371.60
2019-01-10T03:28:38.435Z,371.43
2019-01-10T03:31:05.941Z,375.73
2019-01-10T03:33:34.476Z,384.60
2019-01-10T03:36:03.124Z,382.77
2019-01-10T03:38:30.892Z,379.43
2019-01-10T03:40:58.225Z,392.80
2019-01-10T03:43:25.787Z,402.83
2019-01-10T03:45:53.589Z,386.00
2019-01-10T03:48:20.964Z,376.73
2019-01-10T03:50:48.350Z,370.37
2019-01-10T03:53:15.741Z,390.37
2019-01-10T03:55:43.338Z,366.37
2019-01-10T03:58:10.969Z,388.13
2019-01-10T04:00:38.337Z,390.50
2019-01-10T04:03:05.778Z,409.43
2019-01-10T04:05:33.236Z,375.03
2019-01-10T04:08:00.757Z,390.40
2019-01-10T04:10:28.114Z,388.17
2019-01-10T04:12:55.558Z,409.80
2019-01-10T04:15:23.314Z,379.97
2019-01-10T04:17:50.795Z,424.47
2019-01-10T04:20:18.515Z,371.90
2019-01-10T04:22:46.103Z,392.87
2019-01-10T04:25:14.320Z,381.67
2019-01-10T04:27:42.005Z,420.40
2019-01-10T04:30:17.082Z,394.43
2019-01-10T04:32:44.581Z,402.07
2019-01-10T04:35:12.263Z,386.13
2019-01-10T04:37:40.760Z,417.43
2019-01-10T04:40:12.101Z,385.97
2019-01-10T04:42:39.520Z,409.97
2019-01-10T04:45:07.450Z,379.70
2019-01-10T04:47:35.163Z,395.07
2019-01-10T04:50:03.629Z,364.97
2019-01-10T04:52:31.137Z,401.47
2019-01-10T04:54:58.584Z,376.67
2019-01-10T04:57:25.970Z,393.60
2019-01-10T04:59:53.693Z,371.83
2019-01-10T05:02:21.269Z,404.03
2019-01-10T05:04:48.950Z,380.17
2019-01-10T05:07:16.304Z,400.37
2019-01-10T05:09:48.124Z,358.17
2019-01-10T05:12:15.732Z,406.80
2019-01-10T05:14:43.162Z,372.50
2019-01-10T05:17:10.843Z,395.20
2019-01-10T05:19:38.346Z,380.13
2019-01-10T05:22:07.088Z,412.73
2019-01-10T05:24:34.619Z,373.33
2019-01-10T05:27:01.999Z,389.87
2019-01-10T05:29:29.627Z,389.33
2019-01-10T05:31:57.158Z,387.63
2019-01-10T05:34:25.847Z,389.97
2019-01-10T05:36:53.379Z,387.87
2019-01-10T05:39:20.867Z,385.90
2019-01-10T05:41:48.310Z,368.63
2019-01-10T05:44:26.430Z,374.87
2019-01-10T05:46:49.008Z,381.80
2019-01-10T05:49:16.745Z,366.57
2019-01-10T05:51:44.190Z,371.90
2019-01-10T05:54:11.674Z,360.80
2019-01-10T05:56:40.296Z,337.23
2019-01-10T05:59:07.883Z,337.77
2019-01-10T06:01:35.235Z,335.83
2019-01-10T06:04:02.918Z,359.30
2019-01-10T06:06:30.238Z,346.27
2019-01-10T06:08:57.672Z,335.83
2019-01-10T06:11:26.524Z,336.63
2019-01-10T06:13:53.883Z,310.40
2019-01-10T06:16:21.309Z,309.53
2019-01-10T06:18:48.767Z,314.93
2019-01-10T06:21:16.316Z,348.73
2019-01-10T06:23:43.809Z,297.60
2019-01-10T06:26:11.358Z,308.37
2019-01-10T06:28:39.152Z,311.80
2019-01-10T06:31:06.979Z,292.27
2019-01-10T06:33:34.573Z,318.43
2019-01-10T06:36:02.193Z,337.07
2019-01-10T06:38:29.615Z,291.37
2019-01-10T06:40:57.113Z,284.90
2019-01-10T06:43:25.469Z,282.27
2019-01-10T06:45:52.924Z,265.33
2019-01-10T06:48:52.252Z,294.17
2019-01-10T06:51:36.255Z,304.97
2019-01-10T06:54:06.219Z,301.23
2019-01-10T06:56:33.831Z,289.17
2019-01-10T06:59:02.961Z,287.17
2019-01-10T07:01:30.481Z,317.97
2019-01-10T07:03:58.115Z,310.90
2019-01-10T07:06:25.611Z,300.30
2019-01-10T07:08:54.283Z,281.37
2019-01-10T07:11:21.726Z,318.97
2019-01-10T07:13:49.074Z,265.00
2019-01-10T07:16:16.562Z,276.13
2019-01-10T07:18:46.505Z,280.53
2019-01-10T07:21:13.984Z,286.33
2019-01-10T07:23:45.896Z,283.00
2019-01-10T07:26:13.588Z,281.27
2019-01-10T07:28:41.275Z,283.37
2019-01-10T07:31:27.147Z,279.90
2019-01-10T07:33:58.838Z,295.63
2019-01-10T07:36:26.454Z,271.73
2019-01-10T07:38:53.828Z,296.00
2019-01-10T07:41:21.242Z,294.67
2019-01-10T07:43:48.798Z,321.20
2019-01-10T07:46:16.569Z,283.73
2019-01-10T07:48:49.059Z,287.23
2019-01-10T07:51:16.626Z,317.13
2019-01-10T07:53:44.200Z,298.50
2019-01-10T07:56:11.608Z,281.50
2019-01-10T07:58:42.026Z,284.13
2019-01-10T08:01:09.341Z,291.50
2019-01-10T08:03:36.894Z,289.33
2019-01-10T08:06:04.752Z,278.27
2019-01-10T08:08:32.376Z,295.87
2019-01-10T08:11:01.576Z,279.90
2019-01-10T08:13:29.148Z,280.03
2019-01-10T08:15:56.571Z,291.83
2019-01-10T08:18:24.974Z,280.67
2019-01-10T08:20:52.666Z,285.80
2019-01-10T08:23:20.131Z,300.53
2019-01-10T08:25:47.579Z,266.73
2019-01-10T08:28:16.509Z,274.77
2019-01-10T08:30:43.996Z,273.07
2019-01-10T08:33:11.762Z,309.33
2019-01-10T08:35:39.679Z,306.27
2019-01-10T08:38:07.168Z,287.47
2019-01-10T08:40:34.671Z,288.17
2019-01-10T08:43:02.432Z,328.00
2019-01-10T08:45:30.536Z,307.33
2019-01-10T08:47:58.438Z,320.70
2019-01-10T08:50:26.365Z,280.43
2019-01-10T08:52:54.251Z,320.47
2019-01-10T08:55:22.019Z,275.00
2019-01-10T08:57:49.673Z,323.67
2019-01-10T09:00:19.875Z,286.10
2019-01-10T09:02:47.499Z,301.43
2019-01-10T09:05:15.063Z,304.80
2019-01-10T09:07:42.861Z,345.90
2019-01-10T09:10:33.950Z,276.57
2019-01-10T09:13:01.903Z,325.00
2019-01-10T09:15:34.753Z,290.43
2019-01-10T09:17:58.813Z,311.20
2019-01-10T09:20:26.438Z,328.33
2019-01-10T09:22:53.936Z,344.13
2019-01-10T09:25:21.464Z,298.57
2019-01-10T09:27:49.832Z,327.40
2019-01-10T09:30:19.619Z,326.27
2019-01-10T09:32:47.170Z,331.20
2019-01-10T09:35:14.706Z,318.00
2019-01-10T09:37:42.629Z,326.57
2019-01-10T09:40:13.356Z,296.47
2019-01-10T09:42:41.055Z,343.97
2019-01-10T09:45:11.396Z,287.50
2019-01-10T09:47:39.006Z,309.20
2019-01-10T09:50:11.688Z,284.07
2019-01-10T09:52:39.425Z,313.83
2019-01-10T09:55:07.098Z,285.23
2019-01-10T09:57:34.565Z,311.43
2019-01-10T10:00:02.399Z,281.17
2019-01-10T10:02:29.956Z,295.90
2019-01-10T10:04:57.400Z,288.50
2019-01-10T10:07:24.879Z,308.27
2019-01-10T10:09:52.414Z,290.67
2019-01-10T10:12:19.883Z,324.63
2019-01-10T10:14:47.342Z,280.80
2019-01-10T10:17:14.900Z,325.80
2019-01-10T10:19:42.886Z,282.13
2019-01-10T10:22:10.297Z,305.23
2019-01-10T10:24:37.942Z,290.87
2019-01-10T10:27:05.460Z,289.73
2019-01-10T10:29:33.003Z,302.07
2019-01-10T10:32:00.507Z,291.07
2019-01-10T10:34:27.996Z,276.73
2019-01-10T10:36:55.727Z,268.63
2019-01-10T10:39:23.071Z,311.93
2019-01-10T10:41:50.820Z,305.17
2019-01-10T10:44:18.424Z,285.70
2019-01-10T10:46:45.820Z,270.97
2019-01-10T10:49:13.275Z,297.97
2019-01-10T10:51:40.920Z,287.57
2019-01-10T10:54:08.495Z,282.43
2019-01-10T10:56:37.045Z,280.13
2019-01-10T10:59:04.701Z,298.03
2019-01-10T11:01:32.277Z,294.73
2019-01-10T11:03:59.707Z,307.40
2019-01-10T11:06:27.287Z,311.67
2019-01-10T11:08:54.623Z,290.43
2019-01-10T11:11:22.137Z,306.67
2019-01-10T11:13:49.524Z,287.30
2019-01-10T11:16:16.987Z,285.20
2019-01-10T11:18:44.684Z,308.60
2019-01-10T11:21:12.227Z,301.43
2019-01-10T11:23:39.695Z,289.37
2019-01-10T11:26:08.401Z,286.67
2019-01-10T11:28:35.880Z,288.07
2019-01-10T11:31:03.478Z,351.47
2019-01-10T11:33:31.113Z,291.60
2019-01-10T11:35:58.414Z,305.87
2019-01-10T11:38:25.959Z,298.43
2019-01-10T11:40:53.333Z,295.63
2019-01-10T11:43:20.731Z,327.00
2019-01-10T11:45:48.230Z,322.37
2019-01-10T11:48:15.680Z,314.40
2019-01-10T11:50:43.118Z,325.73
2019-01-10T11:53:10.598Z,318.33
2019-01-10T11:55:38.014Z,303.50
2019-01-10T11:58:05.905Z,326.10
2019-01-10T12:00:33.712Z,347.50
2019-01-10T12:03:04.063Z,330.20
2019-01-10T12:05:31.682Z,320.67
2019-01-10T12:07:59.217Z,334.60
2019-01-10T12:10:26.772Z,326.87
2019-01-10T12:12:54.234Z,378.83
2019-01-10T12:15:22.289Z,329.30
2019-01-10T12:17:49.727Z,330.53
2019-01-10T12:20:17.402Z,296.43
2019-01-10T12:22:45.411Z,350.37
2019-01-10T12:25:14.122Z,344.23
2019-01-10T12:27:43.065Z,332.13
2019-01-10T12:30:15.597Z,307.23
2019-01-10T12:32:43.228Z,356.40
2019-01-10T12:35:10.680Z,321.63
2019-01-10T12:37:38.174Z,339.40
2019-01-10T12:40:08.628Z,307.80
2019-01-10T12:42:36.283Z,328.77
2019-01-10T12:45:05.785Z,299.90
2019-01-10T12:47:34.235Z,328.27
2019-01-10T12:50:01.891Z,309.87
2019-01-10T12:52:35.065Z,314.10
2019-01-10T12:54:58.702Z,297.20
2019-01-10T12:57:26.107Z,333.17
2019-01-10T12:59:53.746Z,280.33
2019-01-10T13:02:21.208Z,332.17
2019-01-10T13:04:48.668Z,290.47
2019-01-10T13:07:16.039Z,334.27
2019-01-10T13:09:43.526Z,289.90
2019-01-10T13:12:11.125Z,352.43
2019-01-10T13:14:38.626Z,332.23
2019-01-10T13:17:06.105Z,308.80
2019-01-10T13:19:33.497Z,288.90
2019-01-10T13:22:00.962Z,302.20
2019-01-10T13:24:28.435Z,274.83
2019-01-10T13:26:56.008Z,287.70
2019-01-10T13:29:23.633Z,285.63
2019-01-10T13:31:50.989Z,338.80
2019-01-10T13:34:18.336Z,284.07
2019-01-10T13:36:46.744Z,289.23
2019-01-10T13:39:14.068Z,276.53
2019-01-10T13:41:41.767Z,268.37
2019-01-10T13:44:09.222Z,281.27
2019-01-10T13:46:36.654Z,291.43
2019-01-10T13:49:04.414Z,285.60
2019-01-10T13:51:32.147Z,278.67
2019-01-10T13:53:59.561Z,287.77
2019-01-10T13:56:27.069Z,272.30
2019-01-10T13:58:54.736Z,264.43
2019-01-10T14:01:22.311Z,321.87
2019-01-10T14:03:49.800Z,297.77
2019-01-10T14:06:17.247Z,294.73
2019-01-10T14:08:44.787Z,296.30
2019-01-10T14:11:12.338Z,285.67
2019-01-10T14:13:40.035Z,299.90
2019-01-10T14:16:07.586Z,291.93
2019-01-10T14:18:35.043Z,313.03
2019-01-10T14:21:02.541Z,284.57
2019-01-10T14:23:31.162Z,276.80
2019-01-10T14:25:58.603Z,314.80
2019-01-10T14:28:25.950Z,277.77
2019-01-10T14:30:53.723Z,281.03
2019-01-10T14:33:21.084Z,280.17
2019-01-10T14:35:49.860Z,284.80
2019-01-10T14:38:17.624Z,304.53
2019-01-10T14:40:45.117Z,273.97
2019-01-10T14:43:13.017Z,290.07
2019-01-10T14:45:42.850Z,283.43
2019-01-10T14:48:10.513Z,285.77
2019-01-10T14:50:38.093Z,329.83
2019-01-10T14:53:05.938Z,293.73
2019-01-10T14:55:33.653Z,284.53
2019-01-10T14:58:01.252Z,333.23
2019-01-10T15:00:28.827Z,285.43
2019-01-10T15:02:56.319Z,313.73
2019-01-10T15:05:24.138Z,330.33
2019-01-10T15:07:51.604Z,304.37
2019-01-10T15:10:19.257Z,294.50
2019-01-10T15:12:47.381Z,314.97
2019-01-10T15:15:20.928Z,309.73
2019-01-10T15:17:48.530Z,306.37
2019-01-10T15:20:24.455Z,303.43
2019-01-10T15:22:52.689Z,312.10
2019-01-10T15:25:20.245Z,311.00
2019-01-10T15:28:06.645Z,340.63
2019-01-10T15:30:41.305Z,316.07
2019-01-10T15:33:08.859Z,311.53
2019-01-10T15:35:36.409Z,291.67
2019-01-10T15:38:04.094Z,310.73
2019-01-10T15:40:33.419Z,304.40
2019-01-10T15:43:02.379Z,338.90
2019-01-10T15:45:29.932Z,289.20
2019-01-10T15:47:58.788Z,339.20
2019-01-10T15:50:26.147Z,302.40
2019-01-10T15:52:53.845Z,323.27
2019-01-10T15:55:21.912Z,312.60
2019-01-10T15:57:49.624Z,330.27
2019-01-10T16:00:22.227Z,319.93
2019-01-10T16:02:50.054Z,329.73
2019-01-10T16:05:17.726Z,302.80
2019-01-10T16:07:45.549Z,334.67
2019-01-10T16:10:15.017Z,307.23
2019-01-10T16:12:43.389Z,347.60
2019-01-10T16:15:14.703Z,321.57
2019-01-10T16:17:43.730Z,333.33
2019-01-10T16:20:11.558Z,313.43
2019-01-10T16:22:39.198Z,356.00
2019-01-10T16:25:07.398Z,298.20
2019-01-10T16:27:35.176Z,353.03
2019-01-10T16:30:05.426Z,295.07
2019-01-10T16:32:33.373Z,319.73
2019-01-10T16:35:00.762Z,295.53
2019-01-10T16:37:28.690Z,340.83
2019-01-10T16:39:56.439Z,326.97
2019-01-10T16:42:24.891Z,319.73
2019-01-10T16:44:52.354Z,316.47
2019-01-10T16:47:19.983Z,367.50
2019-01-10T16:49:47.656Z,327.67
2019-01-10T16:52:15.139Z,349.57
2019-01-10T16:54:43.864Z,304.83
2019-01-10T16:57:11.822Z,352.87
2019-01-10T16:59:39.426Z,308.67
2019-01-10T17:02:07.446Z,327.07
2019-01-10T17:04:36.999Z,303.13
2019-01-10T17:07:05.194Z,320.77
2019-01-10T17:09:33.700Z,305.70
2019-01-10T17:12:03.113Z,310.17
2019-01-10T17:14:30.942Z,322.27
2019-01-10T17:16:58.573Z,328.43
2019-01-10T17:19:26.031Z,312.87
2019-01-10T17:21:53.626Z,298.03
2019-01-10T17:24:20.997Z,326.47
2019-01-10T17:26:48.387Z,286.00
2019-01-10T17:29:16.737Z,288.33
2019-01-10T17:31:44.207Z,270.53
2019-01-10T17:34:11.743Z,272.17
2019-01-10T17:36:42.670Z,266.40
2019-01-10T17:39:11.780Z,315.00
2019-01-10T17:41:39.612Z,305.73
2019-01-10T17:44:08.600Z,317.00
2019-01-10T17:46:36.157Z,296.13
2019-01-10T17:49:04.097Z,279.77
2019-01-10T17:51:34.265Z,309.30
2019-01-10T17:54:02.003Z,301.40
2019-01-10T17:56:29.877Z,318.03
2019-01-10T17:58:57.811Z,300.97
2019-01-10T18:01:26.431Z,315.17
2019-01-10T18:03:55.621Z,292.20
2019-01-10T18:06:24.708Z,300.23
2019-01-10T18:08:52.645Z,286.17
2019-01-10T18:11:22.041Z,281.80
2019-01-10T18:13:49.612Z,278.77
2019-01-10T18:16:18.778Z,266.43
2019-01-10T18:19:00.990Z,264.63
2019-01-10T18:21:29.518Z,286.43
2019-01-10T18:23:58.385Z,258.43
2019-01-10T18:26:26.760Z,279.70
2019-01-10T18:28:54.575Z,268.13
2019-01-10T18:31:22.244Z,284.90
2019-01-10T18:33:51.259Z,308.73
2019-01-10T18:36:19.038Z,281.17
2019-01-10T18:38:48.041Z,277.73
2019-01-10T18:41:18.926Z,294.73
2019-01-10T18:43:47.088Z,281.67
2019-01-10T18:46:16.109Z,304.77
2019-01-10T18:48:43.709Z,290.13
2019-01-10T18:51:11.295Z,286.47
2019-01-10T18:53:39.205Z,301.00
2019-01-10T18:56:06.821Z,296.03
2019-01-10T18:58:34.909Z,299.00
2019-01-10T19:01:04.242Z,267.13
2019-01-10T19:03:32.058Z,290.97
2019-01-10T19:06:00.278Z,309.87
2019-01-10T19:08:27.779Z,286.20
2019-01-10T19:10:56.008Z,287.60
2019-01-10T19:13:24.363Z,293.30
2019-01-10T19:15:54.129Z,299.73
2019-01-10T19:18:32.182Z,277.63
2019-01-10T19:21:00.079Z,326.17
2019-01-10T19:23:28.231Z,284.67
2019-01-10T19:25:55.871Z,314.60
2019-01-10T19:28:24.135Z,292.60
2019-01-10T19:30:52.583Z,309.40
2019-01-10T19:33:20.179Z,283.03
2019-01-10T19:35:53.125Z,303.23
2019-01-10T19:38:26.843Z,291.83
2019-01-10T19:40:56.818Z,288.37
2019-01-10T19:43:24.955Z,284.50
2019-01-10T19:45:52.891Z,293.87
2019-01-10T19:48:32.536Z,294.40
2019-01-10T19:51:02.822Z,261.90
2019-01-10T19:53:31.540Z,274.07
2019-01-10T19:56:13.540Z,284.67
2019-01-10T19:58:43.786Z,316.87
2019-01-10T20:01:17.706Z,273.43
2019-01-10T20:03:48.631Z,289.17
2019-01-10T20:06:16.432Z,291.77
2019-01-10T20:08:45.993Z,273.03
2019-01-10T20:11:14.391Z,286.37
2019-01-10T20:13:44.493Z,310.57
2019-01-10T20:16:12.089Z,298.73
2019-01-10T20:18:39.524Z,336.80
2019-01-10T20:21:07.420Z,310.97
2019-01-10T20:23:35.850Z,319.77
2019-01-10T20:26:04.020Z,301.30
2019-01-10T20:28:33.544Z,327.93
2019-01-10T20:31:01.540Z,307.30
2019-01-10T20:33:29.152Z,309.97
2019-01-10T20:35:57.934Z,329.57
2019-01-10T20:38:25.907Z,327.53
2019-01-10T20:40:53.359Z,312.53
2019-01-10T20:43:21.629Z,318.23
2019-01-10T20:45:49.259Z,283.83
2019-01-10T20:48:22.385Z,324.80
2019-01-10T20:50:50.169Z,281.70
2019-01-10T20:53:18.997Z,277.00
2019-01-10T20:55:47.585Z,282.67
2019-01-10T20:58:16.724Z,334.43
2019-01-10T21:00:44.712Z,297.80
2019-01-10T21:03:13.297Z,277.17
2019-01-10T21:05:40.883Z,298.00
2019-01-10T21:08:08.486Z,338.47
2019-01-10T21:10:37.093Z,313.53
2019-01-10T21:13:05.626Z,335.17
2019-01-10T21:15:35.493Z,325.97
2019-01-10T21:18:03.618Z,338.67
2019-01-10T21:20:31.560Z,304.43
2019-01-10T21:22:59.164Z,330.23
2019-01-10T21:25:26.891Z,338.90
2019-01-10T21:27:54.528Z,364.87
2019-01-10T21:30:23.006Z,362.47
2019-01-10T21:32:50.758Z,367.80
2019-01-10T21:35:18.965Z,315.57
2019-01-10T21:37:46.756Z,346.60
2019-01-10T21:40:17.093Z,322.40
2019-01-10T21:42:44.990Z,361.50
2019-01-10T21:45:15.604Z,314.93
2019-01-10T21:47:43.131Z,356.37
2019-01-10T21:50:13.743Z,310.97
2019-01-10T21:52:41.488Z,343.67
2019-01-10T21:55:09.592Z,306.93
2019-01-10T21:57:37.205Z,324.17
2019-01-10T22:00:09.677Z,305.13
2019-01-10T22:02:37.519Z,342.23
2019-01-10T22:05:05.592Z,287.67
2019-01-10T22:07:33.957Z,343.37
2019-01-10T22:10:01.462Z,340.33
2019-01-10T22:12:28.904Z,339.03
2019-01-10T22:14:56.331Z,321.67
2019-01-10T22:17:23.753Z,373.40
2019-01-10T22:19:51.351Z,313.57
2019-01-10T22:22:18.982Z,344.23
2019-01-10T22:24:46.325Z,295.43
2019-01-10T22:27:13.982Z,357.90
2019-01-10T22:29:45.072Z,322.27
2019-01-10T22:32:12.568Z,359.43
2019-01-10T22:34:40.225Z,333.60
2019-01-10T22:37:07.771Z,318.23
2019-01-10T22:39:35.164Z,298.80
2019-01-10T22:42:02.717Z,348.57
2019-01-10T22:44:30.118Z,297.67
2019-01-10T22:46:57.702Z,306.90
2019-01-10T22:49:25.293Z,324.17
2019-01-10T22:51:52.799Z,285.97
2019-01-10T22:54:20.342Z,341.63
2019-01-10T22:56:50.774Z,315.00
2019-01-10T22:59:18.647Z,323.30
2019-01-10T23:01:55.586Z,324.67
2019-01-10T23:04:36.791Z,300.07
2019-01-10T23:07:36.400Z,317.57
2019-01-10T23:10:08.548Z,298.00
2019-01-10T23:12:36.066Z,327.17
2019-01-10T23:15:29.523Z,313.83
2019-01-10T23:17:57.128Z,336.17
2019-01-10T23:20:24.692Z,314.67
2019-01-10T23:22:59.883Z,344.97
2019-01-10T23:25:27.840Z,306.80
2019-01-10T23:27:55.421Z,346.87
2019-01-10T23:30:45.057Z,319.53
2019-01-10T23:33:12.717Z,306.30
2019-01-10T23:35:40.198Z,321.70
2019-01-10T23:38:08.453Z,346.17
2019-01-10T23:40:36.160Z,301.13
2019-01-10T23:43:03.882Z,321.87
2019-01-10T23:45:31.499Z,296.67
2019-01-10T23:47:58.908Z,335.23
2019-01-10T23:50:29.279Z,329.93
2019-01-10T23:52:57.073Z,343.67
2019-01-10T23:55:24.552Z,313.87
2019-01-10T23:57:52.030Z,336.87
